createdAt,value
2019-02-21T00:00:04.463Z,19.20
2019-02-21T00:02:33.384Z,21.40
2019-02-21T00:05:02.380Z,23.43
2019-02-21T00:07:31.034Z,20.30
2019-02-21T00:09:59.667Z,20.57
2019-02-21T00:12:28.315Z,18.37
2019-02-21T00:14:57.014Z,22.07
2019-02-21T00:17:25.650Z,20.83
2019-02-21T00:19:54.288Z,23.80
2019-02-21T00:22:22.918Z,18.93
2019-02-21T00:24:51.860Z,24.53
2019-02-21T00:27:20.470Z,21.83
2019-02-21T00:29:49.150Z,26.60
2019-02-21T00:32:17.768Z,22.10
2019-02-21T00:34:46.709Z,20.87
2019-02-21T00:37:15.317Z,21.87
2019-02-21T00:39:43.966Z,19.13
2019-02-21T00:42:12.588Z,25.13
2019-02-21T00:44:41.245Z,25.67
2019-02-21T00:47:09.878Z,20.57
2019-02-21T00:49:38.521Z,17.27
2019-02-21T00:52:07.142Z,20.13
2019-02-21T00:54:35.756Z,20.10
2019-02-21T00:59:43.270Z,20.40
2019-02-21T01:02:11.895Z,18.03
2019-02-21T01:04:40.535Z,23.10
2019-02-21T01:07:09.509Z,20.00
2019-02-21T01:09:38.515Z,18.77
2019-02-21T01:14:45.711Z,20.00
2019-02-21T01:17:14.686Z,22.93
2019-02-21T01:19:43.586Z,21.03
2019-02-21T01:22:12.479Z,20.93
2019-02-21T01:24:41.126Z,19.77
2019-02-21T01:27:09.760Z,23.17
2019-02-21T01:29:38.736Z,16.93
2019-02-21T01:32:07.365Z,18.30
2019-02-21T01:34:36.008Z,18.63
2019-02-21T01:39:43.202Z,20.67
2019-02-21T01:42:11.855Z,19.03
2019-02-21T01:44:40.469Z,19.90
2019-02-21T01:47:09.445Z,20.57
2019-02-21T01:49:38.113Z,19.67
2019-02-21T01:54:45.307Z,21.53
2019-02-21T01:57:13.919Z,21.20
2019-02-21T01:59:42.822Z,15.10
2019-02-21T02:02:11.459Z,16.83
2019-02-21T02:04:40.108Z,19.37
2019-02-21T02:07:08.740Z,18.80
2019-02-21T02:09:37.392Z,20.27
2019-02-21T02:14:44.588Z,20.97
2019-02-21T02:17:13.201Z,17.90
2019-02-21T02:22:20.696Z,16.33
2019-02-21T02:24:49.341Z,19.90
2019-02-21T02:27:17.972Z,22.07
2019-02-21T02:29:46.595Z,17.23
2019-02-21T02:32:15.228Z,19.00
2019-02-21T02:37:22.419Z,21.53
2019-02-21T02:39:51.065Z,20.70
2019-02-21T02:42:19.699Z,25.50
2019-02-21T02:44:48.334Z,19.40
2019-02-21T02:47:17.287Z,20.90
2019-02-21T02:49:45.909Z,20.93
2019-02-21T02:52:14.511Z,22.00
2019-02-21T02:54:43.133Z,25.53
2019-02-21T02:57:11.753Z,23.53
2019-02-21T02:59:41.341Z,24.83
2019-02-21T03:02:09.015Z,27.07
2019-02-21T03:04:37.843Z,26.47
2019-02-21T03:07:06.302Z,29.00
2019-02-21T03:09:35.195Z,23.90
2019-02-21T03:12:04.144Z,27.20
2019-02-21T03:14:32.786Z,26.80
2019-02-21T03:17:01.714Z,28.00
2019-02-21T03:19:30.702Z,27.00
2019-02-21T03:21:59.328Z,26.57
2019-02-21T03:24:27.955Z,27.10
2019-02-21T03:26:56.559Z,24.23
2019-02-21T03:29:25.290Z,28.03
2019-02-21T03:31:55.834Z,26.33
2019-02-21T03:34:22.463Z,25.63
2019-02-21T03:36:51.113Z,24.73
2019-02-21T03:39:20.083Z,22.27
2019-02-21T03:41:48.737Z,29.70
2019-02-21T03:44:17.366Z,28.37
2019-02-21T03:46:46.003Z,25.50
2019-02-21T03:49:14.629Z,29.80
2019-02-21T03:51:43.648Z,24.60
2019-02-21T03:54:12.591Z,27.93
2019-02-21T03:56:41.574Z,27.23
2019-02-21T03:59:10.225Z,23.63
2019-02-21T04:01:39.139Z,26.17
2019-02-21T04:04:07.777Z,28.50
2019-02-21T04:06:36.733Z,26.70
2019-02-21T04:09:05.716Z,26.57
2019-02-21T04:11:34.352Z,30.00
2019-02-21T04:14:02.981Z,29.77
2019-02-21T04:16:31.621Z,30.77
2019-02-21T04:21:38.808Z,28.27
2019-02-21T04:24:07.846Z,30.93
2019-02-21T04:26:36.854Z,28.90
2019-02-21T04:29:05.457Z,32.20
2019-02-21T04:31:34.076Z,30.60
2019-02-21T04:34:02.708Z,28.00
2019-02-21T04:39:09.904Z,33.27
2019-02-21T04:41:38.874Z,28.87
2019-02-21T04:44:07.491Z,33.27
2019-02-21T04:46:36.451Z,29.63
2019-02-21T04:49:05.062Z,25.87
2019-02-21T04:51:33.695Z,33.93
2019-02-21T04:54:02.598Z,28.93
2019-02-21T04:56:31.263Z,25.23
2019-02-21T04:58:59.902Z,29.97
2019-02-21T05:01:28.539Z,27.37
2019-02-21T05:03:57.440Z,29.37
2019-02-21T05:06:26.075Z,30.93
2019-02-21T05:08:55.017Z,30.90
2019-02-21T05:11:23.650Z,31.97
2019-02-21T05:13:52.616Z,29.57
2019-02-21T05:16:21.255Z,28.27
2019-02-21T05:18:49.868Z,30.57
2019-02-21T05:21:18.491Z,28.30
2019-02-21T05:23:47.106Z,29.57
2019-02-21T05:26:15.750Z,28.73
2019-02-21T05:28:44.364Z,28.93
2019-02-21T05:31:12.985Z,32.77
2019-02-21T05:33:41.600Z,30.17
2019-02-21T05:36:10.282Z,28.70
2019-02-21T05:38:39.222Z,27.87
2019-02-21T05:41:07.877Z,29.73
2019-02-21T05:43:37.238Z,27.80
2019-02-21T05:46:05.506Z,31.67
2019-02-21T05:48:34.137Z,27.07
2019-02-21T05:51:02.759Z,28.40
2019-02-21T05:53:31.403Z,27.70
2019-02-21T05:56:00.022Z,30.83
2019-02-21T05:58:28.625Z,28.37
2019-02-21T06:00:57.257Z,32.87
2019-02-21T06:06:05.091Z,27.27
2019-02-21T06:08:33.724Z,28.83
2019-02-21T06:11:02.734Z,30.87
2019-02-21T06:13:31.293Z,28.93
2019-02-21T06:15:59.940Z,31.97
2019-02-21T06:18:29.174Z,29.30
2019-02-21T06:20:57.883Z,27.67
2019-02-21T06:23:26.150Z,30.17
2019-02-21T06:25:58.892Z,29.90
2019-02-21T06:28:23.916Z,31.77
2019-02-21T06:30:52.641Z,26.53
2019-02-21T06:33:21.242Z,30.70
2019-02-21T06:35:49.866Z,27.67
2019-02-21T06:38:18.481Z,27.40
2019-02-21T06:40:47.192Z,27.80
2019-02-21T06:43:15.779Z,27.40
2019-02-21T06:45:44.399Z,29.83
2019-02-21T06:48:13.009Z,29.50
2019-02-21T06:50:41.658Z,29.33
2019-02-21T06:53:10.602Z,31.50
2019-02-21T06:55:39.246Z,27.20
2019-02-21T06:58:07.874Z,32.27
2019-02-21T07:00:36.523Z,30.93
2019-02-21T07:03:15.164Z,28.60
2019-02-21T07:05:34.065Z,27.13
2019-02-21T07:08:02.699Z,28.00
2019-02-21T07:10:31.335Z,30.00
2019-02-21T07:12:59.981Z,27.13
2019-02-21T07:15:28.600Z,34.30
2019-02-21T07:17:57.534Z,31.07
2019-02-21T07:20:26.146Z,39.53
2019-02-21T07:22:55.119Z,28.53
2019-02-21T07:25:24.009Z,33.90
2019-02-21T07:27:52.638Z,29.47
2019-02-21T07:30:23.216Z,31.40
2019-02-21T07:32:49.850Z,27.97
2019-02-21T07:35:18.499Z,29.27
2019-02-21T07:37:47.122Z,28.93
2019-02-21T07:40:20.139Z,30.30
2019-02-21T07:42:44.745Z,28.67
2019-02-21T07:45:13.469Z,27.70
2019-02-21T07:47:41.994Z,27.10
2019-02-21T07:50:10.626Z,29.87
2019-02-21T07:55:17.803Z,29.50
2019-02-21T07:57:46.503Z,30.30
2019-02-21T08:00:15.097Z,29.70
2019-02-21T08:02:43.739Z,30.37
2019-02-21T08:05:12.673Z,26.17
2019-02-21T08:07:41.294Z,31.67
2019-02-21T08:10:09.920Z,28.00
2019-02-21T08:15:19.602Z,31.80
2019-02-21T08:17:48.231Z,31.90
2019-02-21T08:20:16.856Z,34.27
2019-02-21T08:22:45.755Z,29.17
2019-02-21T08:25:14.384Z,27.73
2019-02-21T08:27:43.041Z,32.57
2019-02-21T08:30:12.025Z,28.17
2019-02-21T08:32:40.661Z,28.37
2019-02-21T08:35:09.280Z,29.13
2019-02-21T08:40:16.946Z,29.60
2019-02-21T08:42:45.568Z,27.10
2019-02-21T08:45:14.209Z,24.33
2019-02-21T08:47:42.836Z,28.20
2019-02-21T08:50:11.449Z,27.60
2019-02-21T08:55:19.325Z,28.13
2019-02-21T08:57:47.962Z,26.57
2019-02-21T09:00:16.599Z,26.90
2019-02-21T09:02:45.246Z,28.77
2019-02-21T09:05:14.187Z,25.20
2019-02-21T09:07:42.817Z,27.53
2019-02-21T09:10:11.471Z,25.87
2019-02-21T09:15:18.642Z,25.17
2019-02-21T09:17:47.284Z,28.50
2019-02-21T09:20:16.211Z,27.87
2019-02-21T09:22:45.056Z,26.87
2019-02-21T09:25:13.687Z,25.00
2019-02-21T09:27:42.678Z,28.93
2019-02-21T09:30:11.293Z,28.00
2019-02-21T09:35:18.475Z,23.87
2019-02-21T09:37:47.433Z,26.40
2019-02-21T09:40:16.071Z,24.93
2019-02-21T09:42:44.709Z,29.23
2019-02-21T09:45:16.339Z,28.87
2019-02-21T09:47:44.988Z,28.97
2019-02-21T09:50:13.617Z,24.30
2019-02-21T09:52:42.604Z,26.70
2019-02-21T09:55:11.232Z,28.77
2019-02-21T10:02:57.331Z,28.33
2019-02-21T10:05:25.936Z,25.00
2019-02-21T10:07:54.567Z,25.33
2019-02-21T10:10:23.186Z,27.03
2019-02-21T10:12:51.805Z,25.00
2019-02-21T10:15:20.750Z,24.20
2019-02-21T10:17:50.880Z,24.00
2019-02-21T10:20:18.377Z,24.03
2019-02-21T10:22:47.013Z,22.57
2019-02-21T10:28:00.189Z,21.37
2019-02-21T10:30:28.815Z,21.33
2019-02-21T10:32:57.443Z,20.77
2019-02-21T10:35:26.063Z,25.17
2019-02-21T10:37:54.693Z,21.47
2019-02-21T10:40:23.320Z,20.97
2019-02-21T10:42:51.973Z,21.27
2019-02-21T10:45:20.650Z,22.07
2019-02-21T10:47:49.296Z,20.23
2019-02-21T10:50:18.289Z,20.23
2019-02-21T10:52:46.924Z,19.07
2019-02-21T10:55:15.558Z,22.67
2019-02-21T10:57:45.467Z,19.57
2019-02-21T11:00:18.664Z,21.83
2019-02-21T11:02:47.299Z,22.47
2019-02-21T11:05:15.931Z,21.97
2019-02-21T11:07:44.579Z,19.73
2019-02-21T11:10:13.193Z,19.97
2019-02-21T11:12:41.822Z,21.10
2019-02-21T11:15:10.440Z,22.70
2019-02-21T11:20:18.024Z,26.63
2019-02-21T11:22:46.674Z,26.30
2019-02-21T11:25:15.294Z,22.17
2019-02-21T11:27:43.925Z,24.10
2019-02-21T11:30:18.584Z,22.30
2019-02-21T11:32:47.223Z,22.27
2019-02-21T11:35:15.849Z,23.13
2019-02-21T11:37:46.792Z,21.63
2019-02-21T11:40:16.168Z,21.97
2019-02-21T11:42:44.804Z,25.77
2019-02-21T11:45:13.430Z,24.30
2019-02-21T11:47:42.039Z,24.90
2019-02-21T11:50:19.899Z,22.17
2019-02-21T11:52:48.518Z,25.20
2019-02-21T11:57:55.574Z,21.03
2019-02-21T12:00:27.251Z,24.23
2019-02-21T12:02:55.891Z,21.23
2019-02-21T12:05:32.297Z,22.40
2019-02-21T12:07:53.408Z,22.77
2019-02-21T12:10:22.044Z,24.47
2019-02-21T12:12:50.678Z,19.30
2019-02-21T12:15:19.306Z,20.70
2019-02-21T12:17:48.204Z,28.40
2019-02-21T12:20:16.846Z,19.70
2019-02-21T12:22:45.460Z,22.07
2019-02-21T12:25:16.831Z,20.57
2019-02-21T12:27:45.438Z,19.90
2019-02-21T12:30:17.169Z,16.97
2019-02-21T12:32:45.794Z,22.30
2019-02-21T12:35:14.421Z,16.20
2019-02-21T12:37:43.312Z,15.53
2019-02-21T12:42:53.817Z,13.63
2019-02-21T12:45:22.783Z,13.87
2019-02-21T12:47:53.771Z,11.73
2019-02-21T12:50:20.310Z,12.70
2019-02-21T12:52:48.913Z,13.10
2019-02-21T12:55:27.135Z,11.70
2019-02-21T12:57:46.178Z,11.67
2019-02-21T13:00:17.748Z,10.20
2019-02-21T13:02:46.360Z,8.00
2019-02-21T13:05:14.999Z,8.27
2019-02-21T13:07:43.898Z,9.73
2019-02-21T13:10:12.542Z,9.53
2019-02-21T13:12:41.142Z,7.97
2019-02-21T13:15:09.776Z,8.43
2019-02-21T13:20:16.929Z,14.70
2019-02-21T13:22:45.547Z,13.47
2019-02-21T13:27:52.828Z,10.10
2019-02-21T13:30:21.461Z,11.67
2019-02-21T13:32:50.412Z,9.03
2019-02-21T13:35:19.047Z,10.93
2019-02-21T13:37:47.649Z,11.73
2019-02-21T13:40:16.361Z,12.40
2019-02-21T13:42:44.980Z,11.77
2019-02-21T13:45:17.002Z,12.20
2019-02-21T13:47:42.938Z,12.33
2019-02-21T13:50:23.551Z,13.93
2019-02-21T13:52:49.832Z,13.07
2019-02-21T13:55:18.814Z,11.37
2019-02-21T13:57:47.427Z,13.03
2019-02-21T14:00:22.413Z,13.33
2019-02-21T14:02:51.046Z,14.50
2019-02-21T14:05:19.989Z,13.60
2019-02-21T14:07:48.604Z,15.43
2019-02-21T14:10:17.558Z,17.60
2019-02-21T14:12:46.178Z,14.67
2019-02-21T14:15:26.812Z,16.43
2019-02-21T14:17:55.425Z,17.60
2019-02-21T14:20:24.048Z,16.83
2019-02-21T14:22:52.672Z,17.47
2019-02-21T14:25:21.315Z,17.37
2019-02-21T14:27:49.947Z,19.03
2019-02-21T14:30:18.613Z,17.50
2019-02-21T14:32:47.196Z,18.67
2019-02-21T14:35:16.194Z,17.23
2019-02-21T14:37:44.793Z,17.77
2019-02-21T14:40:13.753Z,20.07
2019-02-21T14:42:42.389Z,16.67
2019-02-21T14:47:58.015Z,19.23
2019-02-21T14:50:26.927Z,17.90
2019-02-21T14:52:55.536Z,18.47
2019-02-21T14:55:24.161Z,18.67
2019-02-21T14:57:52.774Z,22.10
2019-02-21T15:02:59.963Z,19.27
2019-02-21T15:05:28.592Z,21.47
2019-02-21T15:07:57.217Z,18.20
2019-02-21T15:10:25.865Z,20.53
2019-02-21T15:12:54.532Z,20.90
2019-02-21T15:15:26.084Z,18.57
2019-02-21T15:18:04.466Z,16.50
2019-02-21T15:20:23.328Z,19.57
2019-02-21T15:22:53.858Z,19.23
2019-02-21T15:25:20.563Z,22.60
2019-02-21T15:27:49.157Z,20.63
2019-02-21T15:30:20.859Z,19.53
2019-02-21T15:32:49.465Z,22.00
2019-02-21T15:35:19.469Z,18.80
2019-02-21T15:37:46.734Z,18.27
2019-02-21T15:40:15.679Z,20.33
2019-02-21T15:42:44.303Z,21.53
2019-02-21T15:47:51.776Z,19.77
2019-02-21T15:50:20.736Z,20.20
2019-02-21T15:52:49.354Z,19.33
2019-02-21T15:55:17.995Z,22.50
2019-02-21T15:57:46.608Z,21.20
2019-02-21T16:02:56.647Z,23.07
2019-02-21T16:05:25.275Z,20.57
2019-02-21T16:07:53.893Z,22.40
2019-02-21T16:10:22.527Z,23.77
2019-02-21T16:12:51.575Z,24.53
2019-02-21T16:15:19.807Z,22.80
2019-02-21T16:17:48.377Z,23.33
2019-02-21T16:20:17.008Z,22.80
2019-02-21T16:22:45.726Z,23.37
2019-02-21T16:25:14.276Z,26.67
2019-02-21T16:27:42.883Z,28.67
2019-02-21T16:30:12.769Z,27.30
2019-02-21T16:35:19.061Z,30.93
2019-02-21T16:37:47.665Z,27.93
2019-02-21T16:40:19.283Z,27.33
2019-02-21T16:42:47.903Z,27.87
2019-02-21T16:45:16.875Z,27.03
2019-02-21T16:47:45.471Z,30.70
2019-02-21T16:50:14.124Z,32.33
2019-02-21T16:52:42.756Z,29.47
2019-02-21T16:55:20.747Z,30.00
2019-02-21T16:57:49.363Z,29.00
2019-02-21T17:00:17.997Z,26.50
2019-02-21T17:02:46.668Z,25.93
2019-02-21T17:05:15.234Z,34.63
2019-02-21T17:07:43.863Z,29.53
2019-02-21T17:10:15.252Z,29.50
2019-02-21T17:12:43.918Z,29.00
2019-02-21T17:15:12.864Z,28.07
2019-02-21T17:17:41.521Z,30.43
2019-02-21T17:22:55.063Z,26.20
2019-02-21T17:25:23.920Z,27.77
2019-02-21T17:27:52.549Z,31.20
2019-02-21T17:30:21.464Z,35.07
2019-02-21T17:32:50.436Z,31.27
2019-02-21T17:35:19.060Z,33.00
2019-02-21T17:37:47.712Z,31.00
2019-02-21T17:40:16.600Z,32.53
2019-02-21T17:42:45.247Z,31.13
2019-02-21T17:45:14.161Z,35.90
2019-02-21T17:47:42.875Z,36.90
2019-02-21T17:50:11.413Z,34.07
2019-02-21T17:55:21.097Z,32.63
2019-02-21T17:57:50.081Z,32.33
2019-02-21T18:00:21.567Z,36.10
2019-02-21T18:02:50.625Z,33.43
2019-02-21T18:05:19.518Z,32.80
2019-02-21T18:07:48.497Z,34.17
2019-02-21T18:10:17.120Z,32.43
2019-02-21T18:12:45.752Z,37.93
2019-02-21T18:15:14.389Z,31.67
2019-02-21T18:17:43.120Z,33.97
2019-02-21T18:20:11.722Z,36.30
2019-02-21T18:22:40.362Z,32.13
2019-02-21T18:27:50.775Z,32.37
2019-02-21T18:30:19.383Z,34.97
2019-02-21T18:32:48.366Z,34.50
2019-02-21T18:35:17.362Z,35.67
2019-02-21T18:37:47.807Z,33.83
2019-02-21T18:40:18.501Z,35.17
2019-02-21T18:42:43.394Z,34.67
2019-02-21T18:45:12.029Z,34.07
2019-02-21T18:50:19.220Z,42.27
2019-02-21T18:52:47.842Z,36.77
2019-02-21T18:55:16.755Z,35.37
2019-02-21T18:57:45.386Z,34.37
2019-02-21T19:00:20.026Z,37.17
2019-02-21T19:02:48.938Z,34.53
2019-02-21T19:05:17.848Z,36.90
2019-02-21T19:07:46.482Z,39.17
2019-02-21T19:10:15.102Z,35.73
2019-02-21T19:12:44.084Z,37.70
2019-02-21T19:15:12.785Z,39.33
2019-02-21T19:17:41.662Z,34.83
2019-02-21T19:20:10.551Z,37.60
2019-02-21T19:25:17.830Z,41.87
2019-02-21T19:27:46.485Z,40.33
2019-02-21T19:33:02.545Z,40.20
2019-02-21T19:35:31.157Z,37.47
2019-02-21T19:38:09.893Z,36.83
2019-02-21T19:40:28.702Z,39.30
2019-02-21T19:42:57.306Z,39.67
2019-02-21T19:45:25.908Z,37.97
2019-02-21T19:47:54.954Z,40.37
2019-02-21T19:50:23.562Z,40.80
2019-02-21T19:52:52.194Z,39.33
2019-02-21T19:55:20.800Z,37.37
2019-02-21T19:57:49.466Z,38.33
2019-02-21T20:00:18.098Z,37.63
2019-02-21T20:02:46.758Z,40.47
2019-02-21T20:05:15.643Z,42.33
2019-02-21T20:07:44.299Z,40.30
2019-02-21T20:10:13.218Z,41.97
2019-02-21T20:12:42.234Z,39.40
2019-02-21T20:15:10.820Z,40.23
2019-02-21T20:22:59.242Z,43.77
2019-02-21T20:25:27.866Z,40.83
2019-02-21T20:27:56.841Z,42.40
2019-02-21T20:30:25.456Z,42.40
2019-02-21T20:32:54.105Z,40.13
2019-02-21T20:35:22.706Z,42.87
2019-02-21T20:37:51.353Z,47.17
2019-02-21T20:40:19.966Z,46.43
2019-02-21T20:42:48.578Z,45.70
2019-02-21T20:45:17.910Z,47.40
2019-02-21T20:47:46.571Z,47.47
2019-02-21T20:50:15.186Z,47.87
2019-02-21T20:52:43.791Z,46.53
2019-02-21T20:55:12.408Z,48.83
2019-02-21T20:57:41.048Z,43.70
2019-02-21T21:00:12.908Z,46.83
2019-02-21T21:02:42.665Z,47.90
2019-02-21T21:05:11.604Z,48.07
2019-02-21T21:10:19.145Z,48.47
2019-02-21T21:12:48.106Z,45.17
2019-02-21T21:15:16.725Z,51.23
2019-02-21T21:17:45.359Z,46.27
2019-02-21T21:20:16.993Z,51.43
2019-02-21T21:22:42.654Z,46.00
2019-02-21T21:25:17.235Z,49.60
2019-02-21T21:27:45.860Z,46.67
2019-02-21T21:30:14.829Z,46.40
2019-02-21T21:32:43.457Z,48.30
2019-02-21T21:35:12.091Z,47.80
2019-02-21T21:37:41.000Z,50.10
2019-02-21T21:42:48.154Z,50.40
2019-02-21T21:45:16.786Z,50.10
2019-02-21T21:47:45.431Z,49.27
2019-02-21T21:50:14.057Z,48.10
2019-02-21T21:52:42.669Z,58.33
2019-02-21T21:55:11.287Z,48.50
2019-02-21T22:00:19.110Z,51.77
2019-02-21T22:02:47.732Z,48.67
2019-02-21T22:05:16.397Z,49.37
2019-02-21T22:07:45.124Z,49.67
2019-02-21T22:10:14.050Z,48.37
2019-02-21T22:12:42.679Z,51.07
2019-02-21T22:15:11.622Z,50.97
2019-02-21T22:20:18.802Z,52.30
2019-02-21T22:22:47.435Z,46.50
2019-02-21T22:25:16.071Z,48.13
2019-02-21T22:27:44.705Z,54.73
2019-02-21T22:30:19.397Z,51.90
2019-02-21T22:32:48.014Z,48.23
2019-02-21T22:35:16.970Z,49.57
2019-02-21T22:37:45.597Z,50.30
2019-02-21T22:40:16.906Z,48.90
2019-02-21T22:42:45.534Z,50.03
2019-02-21T22:45:14.165Z,53.67
2019-02-21T22:47:42.792Z,55.17
2019-02-21T22:50:17.998Z,48.43
2019-02-21T22:52:46.610Z,50.13
2019-02-21T22:55:15.242Z,49.13
2019-02-21T22:57:44.203Z,50.40
2019-02-21T23:00:28.028Z,50.83
2019-02-21T23:02:56.962Z,45.97
2019-02-21T23:06:03.282Z,48.10
2019-02-21T23:08:40.957Z,44.80
2019-02-21T23:11:09.574Z,45.30
2019-02-21T23:13:38.594Z,41.70
2019-02-21T23:16:07.197Z,47.67
2019-02-21T23:18:36.175Z,42.73
2019-02-21T23:21:04.792Z,41.87
2019-02-21T23:23:33.683Z,41.73
2019-02-21T23:26:02.644Z,43.20
2019-02-21T23:28:31.622Z,41.97
2019-02-21T23:31:00.229Z,45.07
2019-02-21T23:33:28.839Z,40.30
2019-02-21T23:35:57.473Z,39.63
2019-02-21T23:38:26.140Z,44.00
2019-02-21T23:40:54.776Z,42.60
2019-02-21T23:43:23.389Z,40.97
2019-02-21T23:45:52.004Z,41.53
2019-02-21T23:48:20.614Z,41.03
2019-02-21T23:50:49.238Z,41.13
2019-02-21T23:53:17.834Z,41.63
2019-02-21T23:55:46.470Z,41.20
2019-02-21T23:58:15.074Z,39.87
